createdAt,value
2019-01-09T00:01:37.177Z,0.80
2019-01-09T00:04:09.026Z,0.80
2019-01-09T00:06:39.017Z,0.70
2019-01-09T00:09:20.842Z,0.70
2019-01-09T00:12:04.285Z,0.60
2019-01-09T00:14:37.991Z,0.60
2019-01-09T00:17:08.415Z,0.50
2019-01-09T00:19:56.865Z,0.40
2019-01-09T00:22:37.323Z,0.40
2019-01-09T00:25:07.779Z,0.40
2019-01-09T00:28:07.747Z,0.40
2019-01-09T00:30:39.299Z,0.30
2019-01-09T00:33:15.884Z,0.50
2019-01-09T00:35:55.677Z,0.30
2019-01-09T00:38:26.064Z,0.20
2019-01-09T00:41:42.801Z,0.20
2019-01-09T00:43:49.314Z,0.20
2019-01-09T00:46:27.277Z,0.20
2019-01-09T00:49:08.371Z,0.30
2019-01-09T00:51:40.244Z,0.40
2019-01-09T00:54:43.566Z,0.30
2019-01-09T00:57:14.028Z,0.10
2019-01-09T00:59:41.619Z,0.10
2019-01-09T01:02:59.575Z,0.10
2019-01-09T01:06:05.015Z,0.00
2019-01-09T01:09:13.919Z,0.00
2019-01-09T01:12:35.228Z,0.10
2019-01-09T01:15:34.963Z,0.20
2019-01-09T01:18:51.857Z,-0.10
2019-01-09T01:21:31.035Z,0.00
2019-01-09T01:24:26.813Z,-0.10
2019-01-09T01:27:35.268Z,-0.10
2019-01-09T01:30:44.612Z,-0.10
2019-01-09T01:33:45.996Z,-0.20
2019-01-09T01:37:04.505Z,-0.20
2019-01-09T01:40:10.959Z,-0.10
2019-01-09T01:43:10.126Z,-0.10
2019-01-09T01:46:23.764Z,-0.10
2019-01-09T01:49:42.278Z,-0.10
2019-01-09T01:53:02.478Z,-0.10
2019-01-09T01:56:18.166Z,0.10
2019-01-09T01:59:21.818Z,0.20
2019-01-09T02:02:34.616Z,0.20
2019-01-09T02:05:41.106Z,0.20
2019-01-09T02:09:10.231Z,0.30
2019-01-09T02:11:44.810Z,0.20
2019-01-09T02:15:32.956Z,0.10
2019-01-09T02:18:31.542Z,0.20
2019-01-09T02:21:35.036Z,0.00
2019-01-09T02:25:03.046Z,0.00
2019-01-09T02:27:57.230Z,0.00
2019-01-09T02:31:04.253Z,0.00
2019-01-09T02:33:41.100Z,0.10
2019-01-09T02:36:13.555Z,0.20
2019-01-09T02:38:43.921Z,0.20
2019-01-09T02:41:13.811Z,0.30
2019-01-09T02:43:43.835Z,0.40
2019-01-09T02:46:15.459Z,0.90
2019-01-09T02:48:45.411Z,0.90
2019-01-09T02:51:15.347Z,1.00
2019-01-09T02:53:47.970Z,0.90
2019-01-09T02:56:18.088Z,0.90
2019-01-09T02:58:48.046Z,0.90
2019-01-09T03:01:18.086Z,1.30
2019-01-09T03:03:48.200Z,1.10
2019-01-09T03:06:23.039Z,1.00
2019-01-09T03:08:49.605Z,1.20
2019-01-09T03:11:19.490Z,1.00
2019-01-09T03:13:49.428Z,1.20
2019-01-09T03:16:19.406Z,1.20
2019-01-09T03:18:49.531Z,1.00
2019-01-09T03:21:24.578Z,1.00
2019-01-09T03:23:54.423Z,1.20
2019-01-09T03:26:24.300Z,1.30
2019-01-09T03:28:54.235Z,1.20
2019-01-09T03:31:24.204Z,1.30
2019-01-09T03:33:54.143Z,1.30
2019-01-09T03:36:32.943Z,1.30
2019-01-09T03:39:00.340Z,1.30
2019-01-09T03:41:30.582Z,1.30
2019-01-09T03:44:00.486Z,1.30
2019-01-09T03:46:30.526Z,1.40
2019-01-09T03:49:01.324Z,1.30
2019-01-09T03:51:31.312Z,1.40
2019-01-09T03:54:01.161Z,1.30
2019-01-09T03:56:34.894Z,1.20
2019-01-09T03:59:04.952Z,1.10
2019-01-09T04:01:46.727Z,1.10
2019-01-09T04:04:18.002Z,1.10
2019-01-09T04:06:48.278Z,1.10
2019-01-09T04:09:35.812Z,1.20
2019-01-09T04:12:05.703Z,1.10
2019-01-09T04:14:37.255Z,1.10
2019-01-09T04:17:07.524Z,1.20
2019-01-09T04:19:56.270Z,1.10
2019-01-09T04:22:32.581Z,1.30
2019-01-09T04:25:22.875Z,1.50
2019-01-09T04:28:04.730Z,1.60
2019-01-09T04:30:31.188Z,1.80
2019-01-09T04:33:02.399Z,1.90
2019-01-09T04:35:35.010Z,1.80
2019-01-09T04:38:21.293Z,2.00
2019-01-09T04:40:41.455Z,1.80
2019-01-09T04:43:21.491Z,1.90
2019-01-09T04:46:14.895Z,1.70
2019-01-09T04:48:59.209Z,1.90
2019-01-09T04:51:18.122Z,1.90
2019-01-09T04:53:50.355Z,2.10
2019-01-09T04:56:23.075Z,2.00
2019-01-09T04:59:02.006Z,2.00
2019-01-09T05:01:31.880Z,2.00
2019-01-09T05:04:01.830Z,1.90
2019-01-09T05:06:31.728Z,1.80
2019-01-09T05:09:01.643Z,1.80
2019-01-09T05:11:49.336Z,1.80
2019-01-09T05:14:19.194Z,1.70
2019-01-09T05:16:52.143Z,1.70
2019-01-09T05:19:25.557Z,1.60
2019-01-09T05:22:05.892Z,1.60
2019-01-09T05:24:35.754Z,1.70
2019-01-09T05:27:10.878Z,1.50
2019-01-09T05:29:42.083Z,1.50
2019-01-09T05:32:12.102Z,1.50
2019-01-09T05:34:59.446Z,1.80
2019-01-09T05:37:29.328Z,1.70
2019-01-09T05:39:59.254Z,1.60
2019-01-09T05:42:31.717Z,1.70
2019-01-09T05:45:08.073Z,1.70
2019-01-09T05:47:37.894Z,1.60
2019-01-09T05:50:26.810Z,1.50
2019-01-09T05:52:58.722Z,1.70
2019-01-09T05:55:32.526Z,1.70
2019-01-09T05:58:02.476Z,1.60
2019-01-09T06:00:32.292Z,1.70
2019-01-09T06:03:07.569Z,1.70
2019-01-09T06:05:41.214Z,1.70
2019-01-09T06:08:29.131Z,1.60
2019-01-09T06:10:59.106Z,1.80
2019-01-09T06:13:49.097Z,1.80
2019-01-09T06:16:22.461Z,1.60
2019-01-09T06:19:01.727Z,1.50
2019-01-09T06:21:33.880Z,1.50
2019-01-09T06:24:17.129Z,1.30
2019-01-09T06:26:48.286Z,1.40
2019-01-09T06:29:39.035Z,1.50
2019-01-09T06:32:04.453Z,1.40
2019-01-09T06:34:35.869Z,1.50
2019-01-09T06:37:11.329Z,1.40
2019-01-09T06:39:44.786Z,1.30
2019-01-09T06:42:15.880Z,1.40
2019-01-09T06:45:03.316Z,1.40
2019-01-09T06:47:41.023Z,1.50
2019-01-09T06:50:14.984Z,1.40
2019-01-09T06:52:56.061Z,1.40
2019-01-09T06:55:25.864Z,1.40
2019-01-09T06:58:05.941Z,1.40
2019-01-09T07:00:38.243Z,1.50
2019-01-09T07:03:08.014Z,1.50
2019-01-09T07:05:53.120Z,1.30
2019-01-09T07:08:26.592Z,1.50
2019-01-09T07:11:14.282Z,1.40
2019-01-09T07:13:44.443Z,1.60
2019-01-09T07:16:57.596Z,1.30
2019-01-09T07:19:33.382Z,1.30
2019-01-09T07:22:05.863Z,1.00
2019-01-09T07:24:35.956Z,1.30
2019-01-09T07:27:05.985Z,1.30
2019-01-09T07:29:37.795Z,1.30
2019-01-09T07:32:08.624Z,1.40
2019-01-09T07:34:45.997Z,1.20
2019-01-09T07:37:19.363Z,1.20
2019-01-09T07:39:49.845Z,1.30
2019-01-09T07:42:21.373Z,1.40
2019-01-09T07:46:02.320Z,1.30
2019-01-09T07:47:23.873Z,1.20
2019-01-09T07:50:00.675Z,1.30
2019-01-09T07:52:38.198Z,1.30
2019-01-09T07:55:14.226Z,1.40
2019-01-09T07:57:44.057Z,1.30
2019-01-09T08:00:23.817Z,1.40
2019-01-09T08:02:51.273Z,1.40
2019-01-09T08:05:29.593Z,1.40
2019-01-09T08:08:13.524Z,1.30
2019-01-09T08:10:59.672Z,1.40
2019-01-09T08:13:57.100Z,1.50
2019-01-09T08:16:18.818Z,1.30
2019-01-09T08:19:00.015Z,1.30
2019-01-09T08:21:28.826Z,1.40
2019-01-09T08:24:13.487Z,1.40
2019-01-09T08:26:50.640Z,1.30
2019-01-09T08:29:51.107Z,1.40
2019-01-09T08:32:12.497Z,1.50
2019-01-09T08:34:42.804Z,1.50
2019-01-09T08:37:18.695Z,1.50
2019-01-09T08:39:51.613Z,1.60
2019-01-09T08:43:43.677Z,1.60
2019-01-09T08:45:51.276Z,1.70
2019-01-09T08:48:37.099Z,1.80
2019-01-09T08:51:18.676Z,1.70
2019-01-09T08:53:50.065Z,1.60
2019-01-09T08:56:33.346Z,1.80
2019-01-09T08:59:04.169Z,1.80
2019-01-09T09:01:45.516Z,1.70
2019-01-09T09:04:15.385Z,1.70
2019-01-09T09:07:05.034Z,2.00
2019-01-09T09:12:45.822Z,1.90
2019-01-09T09:15:15.055Z,1.90
2019-01-09T09:17:51.836Z,2.10
2019-01-09T09:20:52.457Z,2.00
2019-01-09T09:23:20.905Z,2.00
2019-01-09T09:26:00.243Z,2.00
2019-01-09T09:28:36.315Z,2.10
2019-01-09T09:31:07.293Z,2.10
2019-01-09T09:33:47.229Z,2.20
2019-01-09T09:36:34.842Z,2.30
2019-01-09T09:39:24.909Z,2.40
2019-01-09T09:41:54.873Z,2.50
2019-01-09T09:44:42.832Z,2.70
2019-01-09T09:47:35.827Z,2.70
2019-01-09T09:50:09.939Z,2.70
2019-01-09T09:52:51.541Z,2.60
2019-01-09T09:55:41.538Z,2.60
2019-01-09T09:58:05.747Z,2.40
2019-01-09T10:00:35.497Z,2.40
2019-01-09T10:03:18.303Z,2.50
2019-01-09T10:05:50.542Z,2.70
2019-01-09T10:08:34.002Z,3.10
2019-01-09T10:11:02.902Z,3.20
2019-01-09T10:13:38.052Z,3.70
2019-01-09T10:16:25.557Z,3.50
2019-01-09T10:19:08.444Z,3.30
2019-01-09T10:21:56.343Z,3.10
2019-01-09T10:24:29.031Z,3.00
2019-01-09T10:27:18.944Z,3.00
2019-01-09T10:30:07.049Z,3.00
2019-01-09T10:35:14.534Z,2.90
2019-01-09T10:37:47.318Z,2.80
2019-01-09T10:40:36.119Z,2.80
2019-01-09T10:43:01.747Z,2.80
2019-01-09T10:45:34.813Z,2.90
2019-01-09T10:48:04.854Z,3.00
2019-01-09T10:50:50.325Z,3.10
2019-01-09T10:53:17.706Z,3.10
2019-01-09T10:55:47.551Z,3.20
2019-01-09T10:58:17.661Z,3.30
2019-01-09T11:01:05.409Z,3.30
2019-01-09T11:03:35.285Z,3.30
2019-01-09T11:06:19.070Z,3.30
2019-01-09T11:08:46.936Z,3.30
2019-01-09T11:11:23.333Z,3.40
2019-01-09T11:13:57.101Z,3.40
2019-01-09T11:16:26.877Z,3.50
2019-01-09T11:19:09.174Z,3.50
2019-01-09T11:22:10.897Z,3.50
2019-01-09T11:24:19.908Z,3.70
2019-01-09T11:26:49.789Z,3.80
2019-01-09T11:29:32.744Z,3.80
2019-01-09T11:32:12.417Z,3.80
2019-01-09T11:37:15.316Z,3.90
2019-01-09T11:39:45.167Z,3.90
2019-01-09T11:42:26.849Z,4.00
2019-01-09T11:44:50.955Z,4.00
2019-01-09T11:47:29.955Z,4.00
2019-01-09T11:50:05.830Z,4.10
2019-01-09T11:52:35.868Z,4.10
2019-01-09T11:55:17.512Z,4.30
2019-01-09T11:57:50.482Z,4.20
2019-01-09T12:00:44.663Z,4.20
2019-01-09T12:03:14.797Z,4.30
2019-01-09T12:05:44.525Z,4.40
2019-01-09T12:08:29.152Z,4.60
2019-01-09T12:14:19.617Z,4.90
2019-01-09T12:16:38.656Z,4.80
2019-01-09T12:19:22.256Z,4.70
2019-01-09T12:22:03.964Z,4.70
2019-01-09T12:24:30.748Z,4.80
2019-01-09T12:27:27.437Z,4.80
2019-01-09T12:29:46.059Z,5.10
2019-01-09T12:32:33.258Z,5.50
2019-01-09T12:35:08.305Z,5.40
2019-01-09T12:37:29.938Z,5.40
2019-01-09T12:40:01.148Z,5.40
2019-01-09T12:42:35.498Z,5.20
2019-01-09T12:45:09.881Z,4.90
2019-01-09T12:47:47.354Z,4.80
2019-01-09T12:50:36.217Z,4.90
2019-01-09T12:53:16.636Z,5.00
2019-01-09T12:55:39.137Z,5.00
2019-01-09T12:58:11.243Z,4.90
2019-01-09T13:00:41.162Z,5.00
2019-01-09T13:03:30.775Z,5.20
2019-01-09T13:05:53.414Z,5.20
2019-01-09T13:08:24.334Z,5.40
2019-01-09T13:10:54.410Z,5.50
2019-01-09T13:13:29.207Z,5.40
2019-01-09T13:16:02.841Z,5.30
2019-01-09T13:18:32.693Z,5.30
2019-01-09T13:21:13.371Z,5.30
2019-01-09T13:23:44.185Z,5.30
2019-01-09T13:26:24.123Z,5.30
2019-01-09T13:28:57.813Z,5.20
2019-01-09T13:31:27.670Z,5.10
2019-01-09T13:33:59.271Z,5.00
2019-01-09T13:36:42.057Z,5.00
2019-01-09T13:42:03.809Z,4.90
2019-01-09T13:44:58.969Z,5.00
2019-01-09T13:47:15.649Z,5.00
2019-01-09T13:49:46.805Z,5.00
2019-01-09T13:52:31.086Z,5.00
2019-01-09T13:55:11.729Z,5.00
2019-01-09T13:57:57.642Z,5.00
2019-01-09T14:00:32.132Z,5.00
2019-01-09T14:03:21.492Z,5.10
2019-01-09T14:05:51.355Z,5.00
2019-01-09T14:08:39.321Z,4.90
2019-01-09T14:11:11.868Z,4.90
2019-01-09T14:13:46.238Z,4.90
2019-01-09T14:16:16.079Z,4.90
2019-01-09T14:18:45.924Z,4.90
2019-01-09T14:21:30.526Z,5.00
2019-01-09T14:24:02.776Z,5.00
2019-01-09T14:26:50.507Z,4.90
2019-01-09T14:29:31.115Z,5.00
2019-01-09T14:32:18.476Z,5.00
2019-01-09T14:34:41.035Z,5.00
2019-01-09T14:40:11.506Z,5.00
2019-01-09T14:42:45.915Z,5.00
2019-01-09T14:45:23.918Z,5.00
2019-01-09T14:47:55.346Z,4.90
2019-01-09T14:50:25.773Z,5.00
2019-01-09T14:53:13.305Z,5.00
2019-01-09T14:55:33.267Z,5.00
2019-01-09T14:58:03.214Z,5.00
2019-01-09T15:00:44.800Z,5.00
2019-01-09T15:03:14.573Z,4.90
2019-01-09T15:06:04.975Z,4.90
2019-01-09T15:08:20.410Z,4.90
2019-01-09T15:11:03.235Z,4.90
2019-01-09T15:13:33.172Z,4.90
2019-01-09T15:16:16.841Z,4.80
2019-01-09T15:18:57.193Z,4.80
2019-01-09T15:21:27.039Z,4.80
2019-01-09T15:24:08.335Z,4.80
2019-01-09T15:26:42.646Z,4.90
2019-01-09T15:29:12.516Z,4.80
2019-01-09T15:32:09.159Z,4.80
2019-01-09T15:34:17.980Z,4.80
2019-01-09T15:37:05.816Z,4.80
2019-01-09T15:40:17.322Z,4.70
2019-01-09T15:42:29.220Z,4.70
2019-01-09T15:44:59.167Z,4.70
2019-01-09T15:47:47.991Z,4.70
2019-01-09T15:50:19.280Z,4.70
2019-01-09T15:53:05.045Z,4.60
2019-01-09T15:55:53.791Z,4.70
2019-01-09T15:58:25.016Z,4.50
2019-01-09T16:01:17.782Z,4.50
2019-01-09T16:03:57.197Z,4.30
2019-01-09T16:06:27.008Z,4.30
2019-01-09T16:09:05.977Z,4.20
2019-01-09T16:11:35.860Z,4.20
2019-01-09T16:14:31.667Z,4.20
2019-01-09T16:17:01.421Z,4.20
2019-01-09T16:19:31.289Z,4.20
2019-01-09T16:25:12.003Z,4.20
2019-01-09T16:27:42.940Z,4.20
2019-01-09T16:30:22.838Z,4.10
2019-01-09T16:32:52.546Z,4.10
2019-01-09T16:35:24.763Z,4.10
2019-01-09T16:38:11.216Z,4.00
2019-01-09T16:40:37.610Z,4.10
2019-01-09T16:43:07.533Z,4.10
2019-01-09T16:45:40.443Z,4.00
2019-01-09T16:48:22.105Z,3.90
2019-01-09T16:53:59.502Z,3.90
2019-01-09T16:56:43.008Z,3.90
2019-01-09T16:59:10.692Z,3.80
2019-01-09T17:01:40.501Z,3.80
2019-01-09T17:04:26.680Z,3.80
2019-01-09T17:07:10.524Z,3.80
2019-01-09T17:09:40.498Z,3.80
2019-01-09T17:12:20.968Z,3.70
2019-01-09T17:15:14.217Z,3.70
2019-01-09T17:17:55.442Z,3.70
2019-01-09T17:20:43.204Z,3.70
2019-01-09T17:23:30.804Z,3.60
2019-01-09T17:26:08.508Z,3.50
2019-01-09T17:28:38.449Z,3.60
2019-01-09T17:31:08.464Z,3.60
2019-01-09T17:33:46.629Z,3.60
2019-01-09T17:36:24.028Z,3.60
2019-01-09T17:38:53.798Z,3.50
2019-01-09T17:41:35.771Z,3.60
2019-01-09T17:44:30.344Z,3.50
2019-01-09T17:46:41.383Z,3.50
2019-01-09T17:49:17.258Z,3.50
2019-01-09T17:51:44.053Z,3.50
2019-01-09T17:57:23.932Z,3.30
2019-01-09T17:59:53.711Z,3.30
2019-01-09T18:02:26.073Z,3.10
2019-01-09T18:05:10.457Z,3.10
2019-01-09T18:07:33.604Z,3.00
2019-01-09T18:10:03.630Z,3.10
2019-01-09T18:12:45.831Z,3.20
2019-01-09T18:15:21.278Z,3.20
2019-01-09T18:17:54.134Z,3.20
2019-01-09T18:20:30.955Z,3.20
2019-01-09T18:23:22.684Z,3.20
2019-01-09T18:26:01.507Z,3.20
2019-01-09T18:28:47.176Z,3.20
2019-01-09T18:31:58.575Z,3.10
2019-01-09T18:34:40.199Z,3.00
2019-01-09T18:37:53.464Z,3.00
2019-01-09T18:41:09.878Z,2.90
2019-01-09T18:44:15.755Z,2.80
2019-01-09T18:47:22.060Z,2.80
2019-01-09T18:50:39.067Z,2.70
2019-01-09T18:53:33.107Z,2.70
2019-01-09T18:55:55.677Z,2.60
2019-01-09T18:58:35.827Z,2.50
2019-01-09T19:01:07.827Z,2.40
2019-01-09T19:03:37.980Z,2.30
2019-01-09T19:06:14.995Z,2.30
2019-01-09T19:08:58.197Z,2.20
2019-01-09T19:11:53.170Z,2.10
2019-01-09T19:14:30.514Z,2.00
2019-01-09T19:17:15.479Z,1.90
2019-01-09T19:20:09.481Z,1.90
2019-01-09T19:22:44.449Z,1.70
2019-01-09T19:25:25.280Z,1.80
2019-01-09T19:28:13.326Z,1.70
2019-01-09T19:30:54.111Z,1.60
2019-01-09T19:33:28.867Z,1.60
2019-01-09T19:36:21.880Z,1.50
2019-01-09T19:39:06.091Z,1.50
2019-01-09T19:41:24.749Z,1.50
2019-01-09T19:44:02.148Z,1.40
2019-01-09T19:46:48.749Z,1.40
2019-01-09T19:49:29.945Z,1.30
2019-01-09T19:52:09.124Z,1.20
2019-01-09T19:54:58.035Z,1.20
2019-01-09T19:57:36.912Z,1.10
2019-01-09T20:00:13.691Z,1.20
2019-01-09T20:02:56.032Z,1.00
2019-01-09T20:05:17.300Z,1.00
2019-01-09T20:07:57.502Z,1.10
2019-01-09T20:10:52.673Z,1.10
2019-01-09T20:13:29.975Z,1.00
2019-01-09T20:16:02.218Z,1.00
2019-01-09T20:18:42.420Z,0.90
2019-01-09T20:21:41.087Z,1.00
2019-01-09T20:24:05.573Z,0.90
2019-01-09T20:29:24.468Z,0.80
2019-01-09T20:32:09.959Z,0.80
2019-01-09T20:34:27.506Z,0.70
2019-01-09T20:37:07.538Z,0.60
2019-01-09T20:39:39.528Z,0.60
2019-01-09T20:42:16.308Z,0.40
2019-01-09T20:44:46.317Z,0.40
2019-01-09T20:47:20.047Z,0.40
2019-01-09T20:49:57.722Z,0.30
2019-01-09T20:52:40.737Z,0.10
2019-01-09T20:55:01.540Z,0.00
2019-01-09T20:57:35.428Z,-0.10
2019-01-09T21:00:21.013Z,0.00
2019-01-09T21:03:06.526Z,0.10
2019-01-09T21:05:54.250Z,0.10
2019-01-09T21:08:28.060Z,0.20
2019-01-09T21:11:03.139Z,0.20
2019-01-09T21:13:32.608Z,0.00
2019-01-09T21:16:02.557Z,-0.10
2019-01-09T21:18:32.640Z,-0.10
2019-01-09T21:21:11.296Z,-0.10
2019-01-09T21:23:45.258Z,-0.10
2019-01-09T21:26:53.688Z,-0.20
2019-01-09T21:29:27.771Z,-0.10
2019-01-09T21:32:02.668Z,-0.20
2019-01-09T21:34:44.371Z,-0.30
2019-01-09T21:37:17.297Z,-0.40
2019-01-09T21:39:55.496Z,-0.30
2019-01-09T21:42:44.108Z,-0.50
2019-01-09T21:45:10.961Z,-0.30
2019-01-09T21:47:40.738Z,-0.20
2019-01-09T21:50:22.436Z,-0.20
2019-01-09T21:52:49.865Z,-0.30
2019-01-09T21:55:36.110Z,-0.30
2019-01-09T21:58:01.627Z,-0.30
2019-01-09T22:02:23.740Z,-0.30
2019-01-09T22:03:44.506Z,-0.20
2019-01-09T22:06:18.728Z,-0.20
2019-01-09T22:09:00.392Z,-0.20
2019-01-09T22:11:36.603Z,-0.10
2019-01-09T22:14:18.543Z,0.00
2019-01-09T22:16:45.188Z,0.10
2019-01-09T22:19:15.136Z,0.40
2019-01-09T22:22:06.911Z,0.50
2019-01-09T22:24:59.796Z,0.80
2019-01-09T22:27:46.396Z,0.70
2019-01-09T22:30:32.043Z,0.70
2019-01-09T22:33:20.162Z,0.80
2019-01-09T22:36:09.816Z,0.80
2019-01-09T22:38:40.825Z,0.90
2019-01-09T22:41:26.408Z,1.00
2019-01-09T22:44:27.798Z,1.00
2019-01-09T22:46:37.379Z,1.20
2019-01-09T22:48:57.698Z,1.30
2019-01-09T22:51:37.893Z,1.30
2019-01-09T22:54:12.348Z,1.30
2019-01-09T22:56:48.831Z,1.30
2019-01-09T22:59:23.725Z,1.30
2019-01-09T23:02:09.586Z,1.30
2019-01-09T23:04:47.706Z,1.40
2019-01-09T23:07:46.642Z,1.30
2019-01-09T23:10:17.719Z,1.50
2019-01-09T23:13:25.427Z,1.40
2019-01-09T23:15:36.162Z,1.40
2019-01-09T23:18:20.977Z,1.40
2019-01-09T23:20:40.258Z,1.30
2019-01-09T23:23:13.410Z,1.20
2019-01-09T23:25:46.845Z,1.10
2019-01-09T23:28:16.422Z,1.10
2019-01-09T23:31:06.165Z,1.00
2019-01-09T23:33:38.490Z,1.00
2019-01-09T23:36:17.710Z,0.80
2019-01-09T23:39:01.326Z,0.70
2019-01-09T23:41:58.586Z,0.60
2019-01-09T23:44:30.146Z,0.60
2019-01-09T23:47:03.113Z,0.30
2019-01-09T23:49:42.046Z,0.10
2019-01-09T23:52:29.862Z,0.20
2019-01-09T23:55:08.925Z,-0.10
2019-01-09T23:57:45.406Z,-0.20
